Vidin, Bulgaria
Current Conditions -  °F | °C
As of 3:30 PM on Wednesday 26 Nov 2014 (Local Time) from LRCV Reporting Station
Overcast Overcast  
Wind Chill: 26°   Ceiling: 1100
Heat Index: 32°   Visibility: 5mi
Dew Point: 27°   Wind: 7mph
Humidity: 80%   Direction: 120°ESE
Pressure: 30.3"   Gusts: NA
Location:  44.01°N, 22.87°E
Report Text: LRCV 261230Z 12006KT 8000 SCT009 OVC011 00/M03 Q1026
Loading
Personal Weather Stations






























Interactive Weather Map New forecast layout! Learn more

10-Day Weather Forecast

Advertisements
Track Severe Weather on mobile